sensor_id;sensor_type;location;lat;lon;timestamp;pressure;altitude;pressure_sealevel;temperature
20490;BMP280;10403;54.092;12.122;2024-03-08T00:00:12;102804.94;;;4.27
20490;BMP280;10403;54.092;12.122;2024-03-08T00:02:42;102810.13;;;4.27
20490;BMP280;10403;54.092;12.122;2024-03-08T00:05:11;102803.25;;;4.27
20490;BMP280;10403;54.092;12.122;2024-03-08T00:07:40;102792.66;;;4.23
20490;BMP280;10403;54.092;12.122;2024-03-08T00:10:10;102800.72;;;4.29
20490;BMP280;10403;54.092;12.122;2024-03-08T00:12:43;102806.88;;;4.31
20490;BMP280;10403;54.092;12.122;2024-03-08T00:15:12;102804.28;;;4.31
20490;BMP280;10403;54.092;12.122;2024-03-08T00:17:45;102792.25;;;4.33
20490;BMP280;10403;54.092;12.122;2024-03-08T00:20:13;102800.84;;;4.32
20490;BMP280;10403;54.092;12.122;2024-03-08T00:22:42;102792.97;;;4.29
20490;BMP280;10403;54.092;12.122;2024-03-08T00:25:09;102798.13;;;4.29
20490;BMP280;10403;54.092;12.122;2024-03-08T00:27:38;102803.25;;;4.27
20490;BMP280;10403;54.092;12.122;2024-03-08T00:30:06;102795.47;;;4.27
20490;BMP280;10403;54.092;12.122;2024-03-08T00:32:35;102793.78;;;4.28
20490;BMP280;10403;54.092;12.122;2024-03-08T00:35:04;102797.25;;;4.28
20490;BMP280;10403;54.092;12.122;2024-03-08T00:37:35;102798.06;;;4.27
20490;BMP280;10403;54.092;12.122;2024-03-08T00:40:02;102786.47;;;4.19
20490;BMP280;10403;54.092;12.122;2024-03-08T00:42:30;102799.63;;;4.24
20490;BMP280;10403;54.092;12.122;2024-03-08T00:44:57;102793.47;;;4.22
20490;BMP280;10403;54.092;12.122;2024-03-08T00:47:25;102796.97;;;4.22
20490;BMP280;10403;54.092;12.122;2024-03-08T00:49:53;102792.59;;;4.21
20490;BMP280;10403;54.092;12.122;2024-03-08T00:52:23;102796.06;;;4.22
20490;BMP280;10403;54.092;12.122;2024-03-08T00:54:53;102794.44;;;4.24
20490;BMP280;10403;54.092;12.122;2024-03-08T00:57:21;102790.84;;;4.20
20490;BMP280;10403;54.092;12.122;2024-03-08T00:59:49;102794.31;;;4.21
20490;BMP280;10403;54.092;12.122;2024-03-08T01:02:16;102783.81;;;4.18
20490;BMP280;10403;54.092;12.122;2024-03-08T01:04:46;102775.09;;;4.16
20490;BMP280;10403;54.092;12.122;2024-03-08T01:07:14;102762.41;;;4.02
20490;BMP280;10403;54.092;12.122;2024-03-08T01:09:44;102765.38;;;4.12
20490;BMP280;10403;54.092;12.122;2024-03-08T01:12:12;102768.13;;;4.15
20490;BMP280;10403;54.092;12.122;2024-03-08T01:14:39;102758.31;;;4.07
20490;BMP280;10403;54.092;12.122;2024-03-08T01:17:06;102762.06;;;4.14
20490;BMP280;10403;54.092;12.122;2024-03-08T01:19:33;102758.50;;;4.12
20490;BMP280;10403;54.092;12.122;2024-03-08T01:22:01;102751.44;;;4.08
20490;BMP280;10403;54.092;12.122;2024-03-08T01:24:28;102757.44;;;4.07
20490;BMP280;10403;54.092;12.122;2024-03-08T01:26:56;102760.84;;;4.06
20490;BMP280;10403;54.092;12.122;2024-03-08T01:29:23;102735.41;;;3.97
20490;BMP280;10403;54.092;12.122;2024-03-08T01:31:50;102744.34;;;4.04
20490;BMP280;10403;54.092;12.122;2024-03-08T01:34:20;102743.44;;;4.03
20490;BMP280;10403;54.092;12.122;2024-03-08T01:36:48;102738.16;;;4.00
20490;BMP280;10403;54.092;12.122;2024-03-08T01:39:15;102724.84;;;3.93
20490;BMP280;10403;54.092;12.122;2024-03-08T01:41:44;102733.78;;;3.99
20490;BMP280;10403;54.092;12.122;2024-03-08T01:44:11;102732.16;;;4.01
20490;BMP280;10403;54.092;12.122;2024-03-08T01:46:44;102724.97;;;3.96
20490;BMP280;10403;54.092;12.122;2024-03-08T01:49:13;102731.28;;;4.01
20490;BMP280;10403;54.092;12.122;2024-03-08T01:51:42;102731.28;;;4.01
20490;BMP280;10403;54.092;12.122;2024-03-08T01:54:10;102724.25;;;3.98
20490;BMP280;10403;54.092;12.122;2024-03-08T01:56:39;102717.28;;;3.97
20490;BMP280;10403;54.092;12.122;2024-03-08T01:59:07;102716.25;;;3.94
20490;BMP280;10403;54.092;12.122;2024-03-08T02:01:35;102711.97;;;3.94
20490;BMP280;10403;54.092;12.122;2024-03-08T02:04:03;102714.47;;;3.93
20490;BMP280;10403;54.092;12.122;2024-03-08T02:06:34;102711.84;;;3.91
20490;BMP280;10403;54.092;12.122;2024-03-08T02:09:02;102707.50;;;3.90
20490;BMP280;10403;54.092;12.122;2024-03-08T02:11:36;102699.44;;;3.84
20490;BMP280;10403;54.092;12.122;2024-03-08T02:14:04;102701.06;;;3.82
20490;BMP280;10403;54.092;12.122;2024-03-08T02:16:33;102705.56;;;3.86
20490;BMP280;10403;54.092;12.122;2024-03-08T02:19:01;102694.00;;;3.78
20490;BMP280;10403;54.092;12.122;2024-03-08T02:21:29;102699.44;;;3.84
20490;BMP280;10403;54.092;12.122;2024-03-08T02:23:56;102702.97;;;3.86
20490;BMP280;10403;54.092;12.122;2024-03-08T02:26:24;102696.91;;;3.86
20490;BMP280;10403;54.092;12.122;2024-03-08T02:28:51;102688.25;;;3.85
20490;BMP280;10403;54.092;12.122;2024-03-08T02:31:18;102691.00;;;3.88
20490;BMP280;10403;54.092;12.122;2024-03-08T02:33:46;102693.56;;;3.88
20490;BMP280;10403;54.092;12.122;2024-03-08T02:36:14;102690.09;;;3.88
20490;BMP280;10403;54.092;12.122;2024-03-08T02:38:43;102678.72;;;3.84
20490;BMP280;10403;54.092;12.122;2024-03-08T02:41:11;102685.81;;;3.88
20490;BMP280;10403;54.092;12.122;2024-03-08T02:43:38;102685.06;;;3.91
20490;BMP280;10403;54.092;12.122;2024-03-08T02:46:05;102687.69;;;3.92
20490;BMP280;10403;54.092;12.122;2024-03-08T02:48:33;102685.97;;;3.91
20490;BMP280;10403;54.092;12.122;2024-03-08T02:51:01;102684.28;;;3.93
20490;BMP280;10403;54.092;12.122;2024-03-08T02:53:29;102677.34;;;3.92
20490;BMP280;10403;54.092;12.122;2024-03-08T02:55:56;102679.00;;;3.90
20490;BMP280;10403;54.092;12.122;2024-03-08T02:58:23;102678.03;;;3.88
20490;BMP280;10403;54.092;12.122;2024-03-08T03:00:51;102667.34;;;3.81
20490;BMP280;10403;54.092;12.122;2024-03-08T03:03:18;102662.91;;;3.78
20490;BMP280;10403;54.092;12.122;2024-03-08T03:05:45;102659.50;;;3.79
20490;BMP280;10403;54.092;12.122;2024-03-08T03:08:15;102657.59;;;3.75
20490;BMP280;10403;54.092;12.122;2024-03-08T03:10:44;102666.56;;;3.83
20490;BMP280;10403;54.092;12.122;2024-03-08T03:13:12;102664.00;;;3.83
20490;BMP280;10403;54.092;12.122;2024-03-08T03:15:41;102667.53;;;3.85
20490;BMP280;10403;54.092;12.122;2024-03-08T03:18:10;102671.91;;;3.86
20490;BMP280;10403;54.092;12.122;2024-03-08T03:20:39;102665.03;;;3.87
20490;BMP280;10403;54.092;12.122;2024-03-08T03:23:10;102668.34;;;3.84
20490;BMP280;10403;54.092;12.122;2024-03-08T03:25:41;102665.75;;;3.84
20490;BMP280;10403;54.092;12.122;2024-03-08T03:28:08;102671.00;;;3.86
20490;BMP280;10403;54.092;12.122;2024-03-08T03:30:38;102666.72;;;3.86
20490;BMP280;10403;54.092;12.122;2024-03-08T03:33:06;102661.28;;;3.80
20490;BMP280;10403;54.092;12.122;2024-03-08T03:35:37;102660.66;;;3.86
20490;BMP280;10403;54.092;12.122;2024-03-08T03:38:05;102663.31;;;3.87
20490;BMP280;10403;54.092;12.122;2024-03-08T03:40:36;102662.50;;;3.88
20490;BMP280;10403;54.092;12.122;2024-03-08T03:43:04;102659.91;;;3.88
20490;BMP280;10403;54.092;12.122;2024-03-08T03:45:31;102656.22;;;3.83
20490;BMP280;10403;54.092;12.122;2024-03-08T03:48:05;102659.59;;;3.81
20490;BMP280;10403;54.092;12.122;2024-03-08T03:50:39;102665.75;;;3.84
20490;BMP280;10403;54.092;12.122;2024-03-08T03:53:08;102669.38;;;3.88
20490;BMP280;10403;54.092;12.122;2024-03-08T03:55:37;102655.56;;;3.87
20490;BMP280;10403;54.092;12.122;2024-03-08T03:58:08;102658.13;;;3.87
20490;BMP280;10403;54.092;12.122;2024-03-08T04:00:37;102654.66;;;3.87
20490;BMP280;10403;54.092;12.122;2024-03-08T04:03:04;102647.78;;;3.87
20490;BMP280;10403;54.092;12.122;2024-03-08T04:05:32;102658.31;;;3.92
20490;BMP280;10403;54.092;12.122;2024-03-08T04:07:59;102661.94;;;3.95
20490;BMP280;10403;54.092;12.122;2024-03-08T04:10:27;102653.50;;;3.99
20490;BMP280;10403;54.092;12.122;2024-03-08T04:12:54;102660.47;;;4.00
20490;BMP280;10403;54.092;12.122;2024-03-08T04:15:21;102658.69;;;3.99
20490;BMP280;10403;54.092;12.122;2024-03-08T04:17:48;102665.34;;;3.94
20490;BMP280;10403;54.092;12.122;2024-03-08T04:20:16;102665.91;;;3.87
20490;BMP280;10403;54.092;12.122;2024-03-08T04:22:45;102666.47;;;3.80
20490;BMP280;10403;54.092;12.122;2024-03-08T04:25:17;102661.97;;;3.76
20490;BMP280;10403;54.092;12.122;2024-03-08T04:27:45;102662.78;;;3.75
20490;BMP280;10403;54.092;12.122;2024-03-08T04:30:14;102655.72;;;3.71
20490;BMP280;10403;54.092;12.122;2024-03-08T04:32:41;102660.09;;;3.73
20490;BMP280;10403;54.092;12.122;2024-03-08T04:35:09;102649.56;;;3.69
20490;BMP280;10403;54.092;12.122;2024-03-08T04:37:37;102648.81;;;3.71
20490;BMP280;10403;54.092;12.122;2024-03-08T04:40:05;102643.59;;;3.70
20490;BMP280;10403;54.092;12.122;2024-03-08T04:42:33;102647.97;;;3.72
20490;BMP280;10403;54.092;12.122;2024-03-08T04:45:01;102649.00;;;3.76
20490;BMP280;10403;54.092;12.122;2024-03-08T04:47:29;102651.75;;;3.79
20490;BMP280;10403;54.092;12.122;2024-03-08T04:49:56;102642.28;;;3.80
20490;BMP280;10403;54.092;12.122;2024-03-08T04:52:25;102644.94;;;3.81
20490;BMP280;10403;54.092;12.122;2024-03-08T04:54:52;102643.28;;;3.83
20490;BMP280;10403;54.092;12.122;2024-03-08T04:57:20;102624.66;;;3.71
20490;BMP280;10403;54.092;12.122;2024-03-08T04:59:47;102640.44;;;3.77
20490;BMP280;10403;54.092;12.122;2024-03-08T05:02:15;102645.47;;;3.74
20490;BMP280;10403;54.092;12.122;2024-03-08T05:04:42;102633.91;;;3.66
20490;BMP280;10403;54.092;12.122;2024-03-08T05:07:10;102640.19;;;3.71
20490;BMP280;10403;54.092;12.122;2024-03-08T05:09:37;102635.00;;;3.71
20490;BMP280;10403;54.092;12.122;2024-03-08T05:12:05;102644.47;;;3.70
20490;BMP280;10403;54.092;12.122;2024-03-08T05:14:33;102638.31;;;3.68
20490;BMP280;10403;54.092;12.122;2024-03-08T05:17:02;102641.72;;;3.67
20490;BMP280;10403;54.092;12.122;2024-03-08T05:19:29;102639.88;;;3.65
20490;BMP280;10403;54.092;12.122;2024-03-08T05:22:01;102622.06;;;3.52
20490;BMP280;10403;54.092;12.122;2024-03-08T05:24:30;102632.00;;;3.62
20490;BMP280;10403;54.092;12.122;2024-03-08T05:26:57;102630.16;;;3.59
20490;BMP280;10403;54.092;12.122;2024-03-08T05:29:27;102622.81;;;3.49
20490;BMP280;10403;54.092;12.122;2024-03-08T05:31:56;102626.34;;;3.51
20490;BMP280;10403;54.092;12.122;2024-03-08T05:34:25;102630.63;;;3.51
20490;BMP280;10403;54.092;12.122;2024-03-08T05:36:53;102628.88;;;3.50
20490;BMP280;10403;54.092;12.122;2024-03-08T05:39:22;102634.31;;;3.56
20490;BMP280;10403;54.092;12.122;2024-03-08T05:41:49;102638.59;;;3.55
20490;BMP280;10403;54.092;12.122;2024-03-08T05:44:17;102637.63;;;3.53
20490;BMP280;10403;54.092;12.122;2024-03-08T05:46:45;102642.75;;;3.52
20490;BMP280;10403;54.092;12.122;2024-03-08T05:49:14;102627.97;;;3.49
20490;BMP280;10403;54.092;12.122;2024-03-08T05:51:42;102624.28;;;3.44
20490;BMP280;10403;54.092;12.122;2024-03-08T05:54:11;102623.38;;;3.44
20490;BMP280;10403;54.092;12.122;2024-03-08T05:56:43;102644.38;;;3.50
20490;BMP280;10403;54.092;12.122;2024-03-08T05:59:12;102640.84;;;3.48
20490;BMP280;10403;54.092;12.122;2024-03-08T06:01:40;102631.84;;;3.40
20490;BMP280;10403;54.092;12.122;2024-03-08T06:04:09;102624.63;;;3.32
20490;BMP280;10403;54.092;12.122;2024-03-08T06:06:38;102628.03;;;3.31
20490;BMP280;10403;54.092;12.122;2024-03-08T06:09:07;102644.56;;;3.35
20490;BMP280;10403;54.092;12.122;2024-03-08T06:11:36;102613.72;;;3.20
20490;BMP280;10403;54.092;12.122;2024-03-08T06:14:05;102648.03;;;3.35
20490;BMP280;10403;54.092;12.122;2024-03-08T06:16:33;102634.09;;;3.32
20490;BMP280;10403;54.092;12.122;2024-03-08T06:19:03;102625.03;;;3.22
20490;BMP280;10403;54.092;12.122;2024-03-08T06:21:31;102638.56;;;3.36
20490;BMP280;10403;54.092;12.122;2024-03-08T06:23:59;102642.19;;;3.40
20490;BMP280;10403;54.092;12.122;2024-03-08T06:26:26;102625.06;;;3.42
20490;BMP280;10403;54.092;12.122;2024-03-08T06:28:58;102632.00;;;3.43
20490;BMP280;10403;54.092;12.122;2024-03-08T06:31:25;102629.25;;;3.40
20490;BMP280;10403;54.092;12.122;2024-03-08T06:33:53;102630.97;;;3.39
20490;BMP280;10403;54.092;12.122;2024-03-08T06:36:25;102642.88;;;3.35
20490;BMP280;10403;54.092;12.122;2024-03-08T06:38:52;102624.34;;;3.26
20490;BMP280;10403;54.092;12.122;2024-03-08T06:41:20;102641.00;;;3.33
20490;BMP280;10403;54.092;12.122;2024-03-08T06:43:48;102627.97;;;3.30
20490;BMP280;10403;54.092;12.122;2024-03-08T06:46:18;102630.66;;;3.33
20490;BMP280;10403;54.092;12.122;2024-03-08T06:49:05;102628.16;;;3.34
20490;BMP280;10403;54.092;12.122;2024-03-08T06:51:34;102635.66;;;3.48
20490;BMP280;10403;54.092;12.122;2024-03-08T06:54:01;102630.56;;;3.49
20490;BMP280;10403;54.092;12.122;2024-03-08T06:56:29;102636.69;;;3.51
20490;BMP280;10403;54.092;12.122;2024-03-08T06:58:57;102640.22;;;3.53
20490;BMP280;10403;54.092;12.122;2024-03-08T07:01:24;102644.66;;;3.56
20490;BMP280;10403;54.092;12.122;2024-03-08T07:03:51;102640.69;;;3.64
20490;BMP280;10403;54.092;12.122;2024-03-08T07:06:19;102624.91;;;3.58
20490;BMP280;10403;54.092;12.122;2024-03-08T07:08:47;102645.81;;;3.62
20490;BMP280;10403;54.092;12.122;2024-03-08T07:11:16;102643.16;;;3.61
20490;BMP280;10403;54.092;12.122;2024-03-08T07:13:45;102641.25;;;3.57
20490;BMP280;10403;54.092;12.122;2024-03-08T07:16:13;102641.00;;;3.51
20490;BMP280;10403;54.092;12.122;2024-03-08T07:18:40;102642.38;;;3.44
20490;BMP280;10403;54.092;12.122;2024-03-08T07:21:10;102646.63;;;3.42
20490;BMP280;10403;54.092;12.122;2024-03-08T07:23:38;102638.50;;;3.34
20490;BMP280;10403;54.092;12.122;2024-03-08T07:26:20;102625.56;;;3.34
20490;BMP280;10403;54.092;12.122;2024-03-08T07:28:47;102645.13;;;3.47
20490;BMP280;10403;54.092;12.122;2024-03-08T07:31:15;102639.28;;;3.51
20490;BMP280;10403;54.092;12.122;2024-03-08T07:33:42;102614.09;;;3.47
20490;BMP280;10403;54.092;12.122;2024-03-08T07:36:10;102627.75;;;3.64
20490;BMP280;10403;54.092;12.122;2024-03-08T07:38:37;102629.03;;;3.73
20490;BMP280;10403;54.092;12.122;2024-03-08T07:41:05;102606.38;;;3.68
20490;BMP280;10403;54.092;12.122;2024-03-08T07:43:32;102614.63;;;3.79
20490;BMP280;10403;54.092;12.122;2024-03-08T07:46:00;102619.44;;;3.90
20490;BMP280;10403;54.092;12.122;2024-03-08T07:48:27;102618.13;;;4.00
20490;BMP280;10403;54.092;12.122;2024-03-08T07:50:55;102620.00;;;4.04
20490;BMP280;10403;54.092;12.122;2024-03-08T07:53:31;102619.28;;;4.06
20490;BMP280;10403;54.092;12.122;2024-03-08T07:55:59;102586.84;;;3.95
20490;BMP280;10403;54.092;12.122;2024-03-08T07:58:27;102614.22;;;4.09
20490;BMP280;10403;54.092;12.122;2024-03-08T08:00:55;102610.69;;;4.07
20490;BMP280;10403;54.092;12.122;2024-03-08T08:03:22;102597.41;;;4.00
20490;BMP280;10403;54.092;12.122;2024-03-08T08:05:49;102603.88;;;4.09
20490;BMP280;10403;54.092;12.122;2024-03-08T08:08:17;102604.78;;;4.12
20490;BMP280;10403;54.092;12.122;2024-03-08T08:10:44;102608.34;;;4.14
20490;BMP280;10403;54.092;12.122;2024-03-08T08:13:11;102605.00;;;4.16
20490;BMP280;10403;54.092;12.122;2024-03-08T08:15:39;102588.44;;;4.13
20490;BMP280;10403;54.092;12.122;2024-03-08T08:18:07;102601.66;;;4.19
20490;BMP280;10403;54.092;12.122;2024-03-08T08:20:36;102604.34;;;4.22
20490;BMP280;10403;54.092;12.122;2024-03-08T08:23:04;102605.25;;;4.22
20490;BMP280;10403;54.092;12.122;2024-03-08T08:25:32;102592.94;;;4.17
20490;BMP280;10403;54.092;12.122;2024-03-08T08:28:02;102597.38;;;4.19
20490;BMP280;10403;54.092;12.122;2024-03-08T08:30:31;102603.53;;;4.23
20490;BMP280;10403;54.092;12.122;2024-03-08T08:33:00;102599.44;;;4.28
20490;BMP280;10403;54.092;12.122;2024-03-08T08:35:28;102602.09;;;4.29
20490;BMP280;10403;54.092;12.122;2024-03-08T08:37:56;102598.78;;;4.33
20490;BMP280;10403;54.092;12.122;2024-03-08T08:40:25;102578.59;;;4.25
20490;BMP280;10403;54.092;12.122;2024-03-08T08:42:55;102593.81;;;4.38
20490;BMP280;10403;54.092;12.122;2024-03-08T08:45:24;102596.28;;;4.35
20490;BMP280;10403;54.092;12.122;2024-03-08T08:47:54;102592.72;;;4.33
20490;BMP280;10403;54.092;12.122;2024-03-08T08:50:23;102591.84;;;4.32
20490;BMP280;10403;54.092;12.122;2024-03-08T08:52:51;102585.59;;;4.27
20490;BMP280;10403;54.092;12.122;2024-03-08T08:55:18;102591.69;;;4.28
20490;BMP280;10403;54.092;12.122;2024-03-08T08:57:49;102591.84;;;4.32
20490;BMP280;10403;54.092;12.122;2024-03-08T09:00:21;102587.16;;;4.44
20490;BMP280;10403;54.092;12.122;2024-03-08T09:02:51;102580.47;;;4.50
20490;BMP280;10403;54.092;12.122;2024-03-08T09:05:18;102593.22;;;4.66
20490;BMP280;10403;54.092;12.122;2024-03-08T09:07:46;102583.13;;;4.73
20490;BMP280;10403;54.092;12.122;2024-03-08T09:10:13;102581.66;;;4.80
20490;BMP280;10403;54.092;12.122;2024-03-08T09:12:44;102581.03;;;4.86
20490;BMP280;10403;54.092;12.122;2024-03-08T09:15:13;102584.56;;;4.88
20490;BMP280;10403;54.092;12.122;2024-03-08T09:17:41;102560.00;;;4.78
20490;BMP280;10403;54.092;12.122;2024-03-08T09:20:10;102574.19;;;4.88
20490;BMP280;10403;54.092;12.122;2024-03-08T09:22:45;102570.66;;;4.86
20490;BMP280;10403;54.092;12.122;2024-03-08T09:25:13;102562.06;;;4.87
20490;BMP280;10403;54.092;12.122;2024-03-08T09:27:40;102566.41;;;4.88
20490;BMP280;10403;54.092;12.122;2024-03-08T09:30:09;102567.53;;;4.94
20490;BMP280;10403;54.092;12.122;2024-03-08T09:32:36;102564.88;;;4.93
20490;BMP280;10403;54.092;12.122;2024-03-08T09:35:05;102565.00;;;4.96
20490;BMP280;10403;54.092;12.122;2024-03-08T09:37:35;102561.72;;;5.01
20490;BMP280;10403;54.092;12.122;2024-03-08T09:40:04;102571.41;;;5.05
20490;BMP280;10403;54.092;12.122;2024-03-08T09:42:36;102555.63;;;4.99
20490;BMP280;10403;54.092;12.122;2024-03-08T09:45:09;102553.13;;;5.02
20490;BMP280;10403;54.092;12.122;2024-03-08T09:47:44;102541.78;;;4.99
20490;BMP280;10403;54.092;12.122;2024-03-08T09:50:11;102551.59;;;5.07
20490;BMP280;10403;54.092;12.122;2024-03-08T09:52:42;102540.97;;;5.01
20490;BMP280;10403;54.092;12.122;2024-03-08T09:55:11;102540.34;;;5.07
20490;BMP280;10403;54.092;12.122;2024-03-08T09:57:43;102551.06;;;5.16
20490;BMP280;10403;54.092;12.122;2024-03-08T10:00:29;102540.13;;;5.25
20490;BMP280;10403;54.092;12.122;2024-03-08T10:03:01;102530.84;;;5.31
20490;BMP280;10403;54.092;12.122;2024-03-08T10:05:30;102513.50;;;5.30
20490;BMP280;10403;54.092;12.122;2024-03-08T10:07:59;102518.94;;;5.36
20490;BMP280;10403;54.092;12.122;2024-03-08T10:10:27;102527.03;;;5.45
20490;BMP280;10403;54.092;12.122;2024-03-08T10:12:55;102521.03;;;5.46
20490;BMP280;10403;54.092;12.122;2024-03-08T10:15:23;102524.44;;;5.45
20490;BMP280;10403;54.092;12.122;2024-03-08T10:17:51;102516.59;;;5.44
20490;BMP280;10403;54.092;12.122;2024-03-08T10:20:20;102526.22;;;5.46
20490;BMP280;10403;54.092;12.122;2024-03-08T10:22:48;102521.03;;;5.46
20490;BMP280;10403;54.092;12.122;2024-03-08T10:25:34;102515.00;;;5.47
20490;BMP280;10403;54.092;12.122;2024-03-08T10:28:05;102497.59;;;5.45
20490;BMP280;10403;54.092;12.122;2024-03-08T10:30:33;102509.84;;;5.49
20490;BMP280;10403;54.092;12.122;2024-03-08T10:33:01;102503.00;;;5.51
20490;BMP280;10403;54.092;12.122;2024-03-08T10:35:30;102495.13;;;5.48
20490;BMP280;10403;54.092;12.122;2024-03-08T10:37:57;102507.53;;;5.56
20490;BMP280;10403;54.092;12.122;2024-03-08T10:40:30;102493.81;;;5.61
20490;BMP280;10403;54.092;12.122;2024-03-08T10:42:59;102494.75;;;5.63
20490;BMP280;10403;54.092;12.122;2024-03-08T10:45:33;102498.16;;;5.62
20490;BMP280;10403;54.092;12.122;2024-03-08T10:50:45;102480.88;;;5.62
20490;BMP280;10403;54.092;12.122;2024-03-08T10:53:14;102460.84;;;5.58
20490;BMP280;10403;54.092;12.122;2024-03-08T10:55:44;102477.88;;;5.75
20490;BMP280;10403;54.092;12.122;2024-03-08T10:58:11;102472.88;;;5.81
20490;BMP280;10403;54.092;12.122;2024-03-08T11:00:39;102451.09;;;5.78
20490;BMP280;10403;54.092;12.122;2024-03-08T11:03:07;102471.59;;;5.94
20490;BMP280;10403;54.092;12.122;2024-03-08T11:05:40;102455.13;;;5.93
20490;BMP280;10403;54.092;12.122;2024-03-08T11:08:19;102458.13;;;6.06
20490;BMP280;10403;54.092;12.122;2024-03-08T11:10:51;102457.41;;;6.11
20490;BMP280;10403;54.092;12.122;2024-03-08T11:13:40;102455.75;;;6.13
20490;BMP280;10403;54.092;12.122;2024-03-08T11:16:10;102446.31;;;6.15
20490;BMP280;10403;54.092;12.122;2024-03-08T11:18:38;102437.56;;;6.13
20490;BMP280;10403;54.092;12.122;2024-03-08T11:21:08;102437.91;;;6.24
20490;BMP280;10403;54.092;12.122;2024-03-08T11:23:40;102433.75;;;6.30
20490;BMP280;10403;54.092;12.122;2024-03-08T11:26:23;102428.75;;;6.37
20490;BMP280;10403;54.092;12.122;2024-03-08T11:28:51;102410.53;;;6.37
20490;BMP280;10403;54.092;12.122;2024-03-08T11:31:25;102416.88;;;6.45
20490;BMP280;10403;54.092;12.122;2024-03-08T11:33:54;102403.09;;;6.49
20490;BMP280;10403;54.092;12.122;2024-03-08T11:36:24;102399.88;;;6.57
20490;BMP280;10403;54.092;12.122;2024-03-08T11:38:57;102391.41;;;6.63
20490;BMP280;10403;54.092;12.122;2024-03-08T11:41:25;102391.56;;;6.69
20490;BMP280;10403;54.092;12.122;2024-03-08T11:44:04;102389.00;;;6.71
20490;BMP280;10403;54.092;12.122;2024-03-08T11:46:36;102376.88;;;6.71
20490;BMP280;10403;54.092;12.122;2024-03-08T11:49:04;102381.56;;;6.83
20490;BMP280;10403;54.092;12.122;2024-03-08T11:51:32;102376.53;;;6.90
20490;BMP280;10403;54.092;12.122;2024-03-08T11:54:00;102376.69;;;6.95
20490;BMP280;10403;54.092;12.122;2024-03-08T11:56:28;102371.59;;;6.99
20490;BMP280;10403;54.092;12.122;2024-03-08T11:58:56;102371.72;;;7.05
20490;BMP280;10403;54.092;12.122;2024-03-08T12:01:26;102376.28;;;7.13
20490;BMP280;10403;54.092;12.122;2024-03-08T12:03:56;102369.47;;;7.18
20490;BMP280;10403;54.092;12.122;2024-03-08T12:06:40;102363.50;;;7.22
20490;BMP280;10403;54.092;12.122;2024-03-08T12:09:09;102350.41;;;7.19
20490;BMP280;10403;54.092;12.122;2024-03-08T12:11:40;102357.66;;;7.30
20490;BMP280;10403;54.092;12.122;2024-03-08T12:14:09;102356.94;;;7.37
20490;BMP280;10403;54.092;12.122;2024-03-08T12:16:37;102341.38;;;7.39
20490;BMP280;10403;54.092;12.122;2024-03-08T12:19:05;102347.63;;;7.47
20490;BMP280;10403;54.092;12.122;2024-03-08T12:21:32;102345.06;;;7.49
20490;BMP280;10403;54.092;12.122;2024-03-08T12:24:03;102335.63;;;7.52
20490;BMP280;10403;54.092;12.122;2024-03-08T12:26:31;102324.38;;;7.53
20490;BMP280;10403;54.092;12.122;2024-03-08T12:29:24;102324.38;;;7.55
20490;BMP280;10403;54.092;12.122;2024-03-08T12:31:58;102314.97;;;7.60
20490;BMP280;10403;54.092;12.122;2024-03-08T12:34:28;102315.03;;;7.64
20490;BMP280;10403;54.092;12.122;2024-03-08T12:36:55;102311.69;;;7.68
20490;BMP280;10403;54.092;12.122;2024-03-08T12:39:23;102309.16;;;7.71
20490;BMP280;10403;54.092;12.122;2024-03-08T12:41:55;102300.59;;;7.77
20490;BMP280;10403;54.092;12.122;2024-03-08T12:44:24;102298.09;;;7.82
20490;BMP280;10403;54.092;12.122;2024-03-08T12:46:52;102287.75;;;7.86
20490;BMP280;10403;54.092;12.122;2024-03-08T12:49:21;102270.31;;;7.84
20490;BMP280;10403;54.092;12.122;2024-03-08T12:51:52;102285.31;;;7.92
20490;BMP280;10403;54.092;12.122;2024-03-08T12:54:20;102281.00;;;7.96
20490;BMP280;10403;54.092;12.122;2024-03-08T12:56:51;102267.94;;;7.94
20490;BMP280;10403;54.092;12.122;2024-03-08T12:59:22;102269.75;;;7.97
20490;BMP280;10403;54.092;12.122;2024-03-08T13:01:51;102274.25;;;8.05
20490;BMP280;10403;54.092;12.122;2024-03-08T13:04:20;102268.16;;;8.05
20490;BMP280;10403;54.092;12.122;2024-03-08T13:06:49;102250.59;;;7.95
20490;BMP280;10403;54.092;12.122;2024-03-08T13:09:21;102257.75;;;8.05
20490;BMP280;10403;54.092;12.122;2024-03-08T13:11:49;102250.78;;;8.04
20490;BMP280;10403;54.092;12.122;2024-03-08T13:14:17;102256.13;;;8.10
20490;BMP280;10403;54.092;12.122;2024-03-08T13:16:44;102241.38;;;8.10
20490;BMP280;10403;54.092;12.122;2024-03-08T13:19:15;102243.13;;;8.13
20490;BMP280;10403;54.092;12.122;2024-03-08T13:21:43;102238.91;;;8.18
20490;BMP280;10403;54.092;12.122;2024-03-08T13:24:16;102231.09;;;8.18
20490;BMP280;10403;54.092;12.122;2024-03-08T13:26:43;102230.25;;;8.19
20490;BMP280;10403;54.092;12.122;2024-03-08T13:29:11;102220.63;;;8.16
20490;BMP280;10403;54.092;12.122;2024-03-08T13:31:38;102220.72;;;8.21
20490;BMP280;10403;54.092;12.122;2024-03-08T13:34:06;102224.38;;;8.31
20490;BMP280;10403;54.092;12.122;2024-03-08T13:36:35;102209.59;;;8.30
20490;BMP280;10403;54.092;12.122;2024-03-08T13:39:09;102214.03;;;8.32
20490;BMP280;10403;54.092;12.122;2024-03-08T13:41:42;102210.53;;;8.32
20490;BMP280;10403;54.092;12.122;2024-03-08T13:44:11;102207.09;;;8.34
20490;BMP280;10403;54.092;12.122;2024-03-08T13:46:38;102198.38;;;8.34
20490;BMP280;10403;54.092;12.122;2024-03-08T13:49:06;102207.19;;;8.39
20490;BMP280;10403;54.092;12.122;2024-03-08T13:51:36;102177.53;;;8.34
20490;BMP280;10403;54.092;12.122;2024-03-08T13:54:03;102193.31;;;8.41
20490;BMP280;10403;54.092;12.122;2024-03-08T13:56:33;102157.59;;;8.37
20490;BMP280;10403;54.092;12.122;2024-03-08T13:59:02;102178.63;;;8.46
20490;BMP280;10403;54.092;12.122;2024-03-08T14:01:29;102170.91;;;8.51
20490;BMP280;10403;54.092;12.122;2024-03-08T14:03:57;102177.03;;;8.54
20490;BMP280;10403;54.092;12.122;2024-03-08T14:06:24;102166.59;;;8.54
20490;BMP280;10403;54.092;12.122;2024-03-08T14:08:57;102150.06;;;8.54